sensor_id;sensor_type;location;lat;lon;timestamp;pressure;altitude;pressure_sealevel;temperature;humidity
70072;BME280;57434;42.794;23.302;2023-05-02T00:00:10;95989.25;;;9.46;73.13
70072;BME280;57434;42.794;23.302;2023-05-02T00:01:12;95983.78;;;9.51;73.40
70072;BME280;57434;42.794;23.302;2023-05-02T00:02:14;96009.00;;;9.51;73.60
70072;BME280;57434;42.794;23.302;2023-05-02T00:03:16;95989.81;;;9.59;73.56
70072;BME280;57434;42.794;23.302;2023-05-02T00:04:19;95963.38;;;9.36;73.86
70072;BME280;57434;42.794;23.302;2023-05-02T00:05:21;95773.06;;;8.08;73.77
70072;BME280;57434;42.794;23.302;2023-05-02T00:06:24;95974.97;;;9.44;74.22
70072;BME280;57434;42.794;23.302;2023-05-02T00:07:26;95979.97;;;9.40;73.89
70072;BME280;57434;42.794;23.302;2023-05-02T00:08:28;95969.53;;;9.40;73.95
70072;BME280;57434;42.794;23.302;2023-05-02T00:09:30;96007.44;;;9.50;73.69
70072;BME280;57434;42.794;23.302;2023-05-02T00:10:32;95971.69;;;9.45;73.34
70072;BME280;57434;42.794;23.302;2023-05-02T00:11:34;95865.72;;;8.81;72.96
70072;BME280;57434;42.794;23.302;2023-05-02T00:12:36;95893.41;;;8.79;73.55
70072;BME280;57434;42.794;23.302;2023-05-02T00:13:38;95971.56;;;9.40;73.68
70072;BME280;57434;42.794;23.302;2023-05-02T00:14:40;95992.91;;;9.37;73.94
70072;BME280;57434;42.794;23.302;2023-05-02T00:15:42;95868.22;;;8.56;73.68
70072;BME280;57434;42.794;23.302;2023-05-02T00:16:44;95980.09;;;9.45;73.52
70072;BME280;57434;42.794;23.302;2023-05-02T00:17:46;95973.88;;;9.41;73.50
70072;BME280;57434;42.794;23.302;2023-05-02T00:18:48;95982.06;;;9.30;73.74
70072;BME280;57434;42.794;23.302;2023-05-02T00:19:50;95974.31;;;9.49;73.62
70072;BME280;57434;42.794;23.302;2023-05-02T00:20:54;95942.28;;;9.26;73.59
70072;BME280;57434;42.794;23.302;2023-05-02T00:21:55;95876.50;;;8.74;73.88
70072;BME280;57434;42.794;23.302;2023-05-02T00:22:57;95984.13;;;9.44;74.14
70072;BME280;57434;42.794;23.302;2023-05-02T00:23:59;96006.13;;;9.61;73.66
70072;BME280;57434;42.794;23.302;2023-05-02T00:25:01;95972.88;;;9.54;73.35
70072;BME280;57434;42.794;23.302;2023-05-02T00:26:07;95981.72;;;9.61;73.36
70072;BME280;57434;42.794;23.302;2023-05-02T00:27:10;95990.75;;;9.56;73.57
70072;BME280;57434;42.794;23.302;2023-05-02T00:28:11;95877.75;;;8.97;72.97
70072;BME280;57434;42.794;23.302;2023-05-02T00:29:13;95871.63;;;9.07;72.33
70072;BME280;57434;42.794;23.302;2023-05-02T00:30:16;95986.88;;;9.77;72.59
70072;BME280;57434;42.794;23.302;2023-05-02T00:31:18;95981.72;;;9.61;72.92
70072;BME280;57434;42.794;23.302;2023-05-02T00:32:20;96014.09;;;9.77;72.86
70072;BME280;57434;42.794;23.302;2023-05-02T00:33:21;95987.47;;;9.81;73.08
70072;BME280;57434;42.794;23.302;2023-05-02T00:34:28;96002.78;;;9.71;72.70
70072;BME280;57434;42.794;23.302;2023-05-02T00:35:32;95976.97;;;9.67;73.22
70072;BME280;57434;42.794;23.302;2023-05-02T00:36:34;95903.44;;;9.19;73.21
70072;BME280;57434;42.794;23.302;2023-05-02T00:37:36;95983.88;;;9.81;72.77
70072;BME280;57434;42.794;23.302;2023-05-02T00:38:37;95911.03;;;9.42;72.32
70072;BME280;57434;42.794;23.302;2023-05-02T00:39:39;95893.25;;;9.31;72.29
70072;BME280;57434;42.794;23.302;2023-05-02T00:40:45;95900.59;;;9.43;72.18
70072;BME280;57434;42.794;23.302;2023-05-02T00:41:47;95987.28;;;9.85;72.32
70072;BME280;57434;42.794;23.302;2023-05-02T00:42:49;96003.34;;;9.99;72.50
70072;BME280;57434;42.794;23.302;2023-05-02T00:43:51;96004.28;;;9.96;72.44
70072;BME280;57434;42.794;23.302;2023-05-02T00:44:53;95997.44;;;9.97;72.39
70072;BME280;57434;42.794;23.302;2023-05-02T00:45:55;95945.50;;;9.72;72.14
70072;BME280;57434;42.794;23.302;2023-05-02T00:46:57;95965.25;;;9.93;71.94
70072;BME280;57434;42.794;23.302;2023-05-02T00:48:01;95892.63;;;9.50;71.59
70072;BME280;57434;42.794;23.302;2023-05-02T00:49:03;95864.34;;;9.25;71.70
70072;BME280;57434;42.794;23.302;2023-05-02T00:50:05;96013.03;;;10.28;71.60
70072;BME280;57434;42.794;23.302;2023-05-02T00:51:07;96001.63;;;10.16;71.75
70072;BME280;57434;42.794;23.302;2023-05-02T00:52:09;95965.09;;;10.11;71.39
70072;BME280;57434;42.794;23.302;2023-05-02T00:53:11;96009.28;;;10.31;71.21
70072;BME280;57434;42.794;23.302;2023-05-02T00:54:13;95898.31;;;9.56;71.20
70072;BME280;57434;42.794;23.302;2023-05-02T00:55:16;95873.00;;;9.36;71.43
70072;BME280;57434;42.794;23.302;2023-05-02T00:56:18;95869.47;;;9.26;71.71
70072;BME280;57434;42.794;23.302;2023-05-02T00:57:19;95924.38;;;9.47;72.25
70072;BME280;57434;42.794;23.302;2023-05-02T00:58:21;95878.38;;;9.15;72.34
70072;BME280;57434;42.794;23.302;2023-05-02T00:59:23;95937.66;;;9.62;72.27
70072;BME280;57434;42.794;23.302;2023-05-02T01:05:27;96000.22;;;9.97;72.63
70072;BME280;57434;42.794;23.302;2023-05-02T01:08:07;96001.53;;;9.72;73.63
70072;BME280;57434;42.794;23.302;2023-05-02T01:10:42;96012.44;;;9.70;73.88
70072;BME280;57434;42.794;23.302;2023-05-02T01:13:31;96030.75;;;9.57;74.20
70072;BME280;57434;42.794;23.302;2023-05-02T01:14:40;96038.84;;;9.55;74.72
70072;BME280;57434;42.794;23.302;2023-05-02T01:15:43;95991.41;;;9.51;74.14
70072;BME280;57434;42.794;23.302;2023-05-02T01:16:47;96012.34;;;9.65;73.69
70072;BME280;57434;42.794;23.302;2023-05-02T01:19:57;95872.31;;;8.93;73.29
70072;BME280;57434;42.794;23.302;2023-05-02T01:21:02;96026.63;;;9.91;73.48
70072;BME280;57434;42.794;23.302;2023-05-02T01:22:07;95985.09;;;9.65;73.72
70072;BME280;57434;42.794;23.302;2023-05-02T01:23:24;95863.50;;;8.85;73.48
70072;BME280;57434;42.794;23.302;2023-05-02T01:24:31;95883.38;;;8.88;73.98
70072;BME280;57434;42.794;23.302;2023-05-02T01:25:52;95877.88;;;8.78;74.66
70072;BME280;57434;42.794;23.302;2023-05-02T01:27:17;96008.66;;;9.59;75.10
70072;BME280;57434;42.794;23.302;2023-05-02T01:29:00;96002.88;;;9.62;75.03
70072;BME280;57434;42.794;23.302;2023-05-02T01:30:03;96000.59;;;9.51;75.24
70072;BME280;57434;42.794;23.302;2023-05-02T01:31:07;95955.66;;;9.22;75.45
70072;BME280;57434;42.794;23.302;2023-05-02T01:32:10;95976.47;;;9.30;75.80
70072;BME280;57434;42.794;23.302;2023-05-02T01:33:15;95878.63;;;8.55;76.01
70072;BME280;57434;42.794;23.302;2023-05-02T01:34:19;95959.25;;;9.13;76.06
70072;BME280;57434;42.794;23.302;2023-05-02T01:35:22;96004.47;;;9.30;75.90
70072;BME280;57434;42.794;23.302;2023-05-02T01:36:28;95848.22;;;8.39;76.09
70072;BME280;57434;42.794;23.302;2023-05-02T01:37:31;96009.16;;;9.24;76.21
70072;BME280;57434;42.794;23.302;2023-05-02T01:38:34;96020.31;;;9.33;76.34
70072;BME280;57434;42.794;23.302;2023-05-02T01:39:39;95856.44;;;8.42;76.39
70072;BME280;57434;42.794;23.302;2023-05-02T01:40:43;95850.09;;;8.42;76.24
70072;BME280;57434;42.794;23.302;2023-05-02T01:41:49;95945.25;;;8.90;76.32
70072;BME280;57434;42.794;23.302;2023-05-02T01:42:52;96006.06;;;9.22;76.57
70072;BME280;57434;42.794;23.302;2023-05-02T01:43:58;95862.06;;;8.33;76.71
70072;BME280;57434;42.794;23.302;2023-05-02T01:45:03;95866.59;;;8.31;76.90
70072;BME280;57434;42.794;23.302;2023-05-02T01:46:08;95982.50;;;9.05;76.88
70072;BME280;57434;42.794;23.302;2023-05-02T01:47:11;95888.47;;;8.32;77.10
70072;BME280;57434;42.794;23.302;2023-05-02T01:48:15;95899.44;;;8.54;77.09
70072;BME280;57434;42.794;23.302;2023-05-02T01:49:22;95857.50;;;8.21;76.87
70072;BME280;57434;42.794;23.302;2023-05-02T01:50:25;95999.91;;;9.09;77.00
70072;BME280;57434;42.794;23.302;2023-05-02T01:51:29;95982.19;;;9.03;76.65
70072;BME280;57434;42.794;23.302;2023-05-02T01:52:33;95988.50;;;9.12;76.58
70072;BME280;57434;42.794;23.302;2023-05-02T01:53:36;95874.50;;;8.32;76.70
70072;BME280;57434;42.794;23.302;2023-05-02T01:54:39;95852.22;;;8.14;76.53
70072;BME280;57434;42.794;23.302;2023-05-02T01:55:43;95865.69;;;8.25;76.32
70072;BME280;57434;42.794;23.302;2023-05-02T01:56:46;95909.25;;;8.49;76.41
70072;BME280;57434;42.794;23.302;2023-05-02T01:57:49;96033.41;;;9.18;76.36
70072;BME280;57434;42.794;23.302;2023-05-02T01:58:54;95998.56;;;8.86;76.97
70072;BME280;57434;42.794;23.302;2023-05-02T01:59:57;96023.22;;;9.06;76.94
70072;BME280;57434;42.794;23.302;2023-05-02T02:01:00;95885.56;;;8.27;76.59
70072;BME280;57434;42.794;23.302;2023-05-02T02:02:05;96023.56;;;8.99;76.58
70072;BME280;57434;42.794;23.302;2023-05-02T02:03:08;96012.81;;;9.06;76.57
70072;BME280;57434;42.794;23.302;2023-05-02T02:04:13;95986.97;;;8.78;76.59
70072;BME280;57434;42.794;23.302;2023-05-02T02:05:16;95879.88;;;8.03;76.90
70072;BME280;57434;42.794;23.302;2023-05-02T02:06:20;96022.56;;;8.78;76.80
70072;BME280;57434;42.794;23.302;2023-05-02T02:07:22;95985.47;;;8.59;77.44
70072;BME280;57434;42.794;23.302;2023-05-02T02:08:24;95885.38;;;7.88;77.20
70072;BME280;57434;42.794;23.302;2023-05-02T02:09:26;96007.50;;;8.66;77.36
70072;BME280;57434;42.794;23.302;2023-05-02T02:10:31;95882.44;;;7.82;77.35
70072;BME280;57434;42.794;23.302;2023-05-02T02:11:48;95907.56;;;8.01;77.22
70072;BME280;57434;42.794;23.302;2023-05-02T02:13:06;95884.44;;;7.82;76.65
70072;BME280;57434;42.794;23.302;2023-05-02T02:14:17;95877.47;;;7.87;77.20
70072;BME280;57434;42.794;23.302;2023-05-02T02:15:26;96002.25;;;8.59;77.00
70072;BME280;57434;42.794;23.302;2023-05-02T02:16:30;95983.81;;;8.43;77.12
70072;BME280;57434;42.794;23.302;2023-05-02T02:17:39;95902.59;;;7.77;77.34
70072;BME280;57434;42.794;23.302;2023-05-02T02:18:43;95986.00;;;8.30;77.64
70072;BME280;57434;42.794;23.302;2023-05-02T02:19:45;95904.34;;;7.75;77.45
70072;BME280;57434;42.794;23.302;2023-05-02T02:20:49;96007.88;;;8.50;77.42
70072;BME280;57434;42.794;23.302;2023-05-02T02:21:53;95997.34;;;8.36;77.33
70072;BME280;57434;42.794;23.302;2023-05-02T02:22:58;96002.94;;;8.36;76.95
70072;BME280;57434;42.794;23.302;2023-05-02T02:24:02;96034.94;;;8.35;77.03
70072;BME280;57434;42.794;23.302;2023-05-02T02:25:09;95996.41;;;8.39;77.07
70072;BME280;57434;42.794;23.302;2023-05-02T02:26:11;96002.31;;;8.41;77.13
70072;BME280;57434;42.794;23.302;2023-05-02T02:27:14;95988.22;;;8.26;76.83
70072;BME280;57434;42.794;23.302;2023-05-02T02:28:16;96019.59;;;8.21;76.91
70072;BME280;57434;42.794;23.302;2023-05-02T02:29:18;95880.78;;;7.39;76.78
70072;BME280;57434;42.794;23.302;2023-05-02T02:30:19;95881.09;;;7.32;76.83
70072;BME280;57434;42.794;23.302;2023-05-02T02:31:21;95907.44;;;7.49;77.00
70072;BME280;57434;42.794;23.302;2023-05-02T02:32:23;95913.03;;;7.49;77.34
70072;BME280;57434;42.794;23.302;2023-05-02T02:33:29;95978.63;;;7.91;77.33
70072;BME280;57434;42.794;23.302;2023-05-02T02:34:31;95883.22;;;7.10;77.43
70072;BME280;57434;42.794;23.302;2023-05-02T02:35:37;95999.75;;;7.92;78.09
70072;BME280;57434;42.794;23.302;2023-05-02T02:36:45;95864.00;;;7.03;78.08
70072;BME280;57434;42.794;23.302;2023-05-02T02:38:19;96009.84;;;7.89;78.28
70072;BME280;57434;42.794;23.302;2023-05-02T02:41:13;96005.50;;;7.97;79.46
70072;BME280;57434;42.794;23.302;2023-05-02T02:44:05;96008.09;;;8.10;79.18
70072;BME280;57434;42.794;23.302;2023-05-02T02:45:29;96045.69;;;8.18;79.00
70072;BME280;57434;42.794;23.302;2023-05-02T02:47:28;96003.59;;;8.12;78.62
70072;BME280;57434;42.794;23.302;2023-05-02T02:48:31;96034.19;;;8.25;78.89
70072;BME280;57434;42.794;23.302;2023-05-02T02:49:51;96016.19;;;8.26;79.07
70072;BME280;57434;42.794;23.302;2023-05-02T02:51:02;96006.53;;;8.27;79.45
70072;BME280;57434;42.794;23.302;2023-05-02T02:53:56;96018.78;;;8.39;79.57
70072;BME280;57434;42.794;23.302;2023-05-02T02:55:13;96011.63;;;8.38;79.70
70072;BME280;57434;42.794;23.302;2023-05-02T02:56:26;95879.22;;;7.57;79.59
70072;BME280;57434;42.794;23.302;2023-05-02T02:57:38;96001.53;;;8.40;79.19
70072;BME280;57434;42.794;23.302;2023-05-02T03:01:03;96036.16;;;8.52;79.44
70072;BME280;57434;42.794;23.302;2023-05-02T03:02:08;96000.75;;;8.49;79.41
70072;BME280;57434;42.794;23.302;2023-05-02T03:03:14;96014.56;;;8.53;79.32
70072;BME280;57434;42.794;23.302;2023-05-02T03:04:17;96027.41;;;8.59;79.32
70072;BME280;57434;42.794;23.302;2023-05-02T03:05:22;95928.34;;;7.91;79.25
70072;BME280;57434;42.794;23.302;2023-05-02T03:06:25;96021.41;;;8.52;79.20
70072;BME280;57434;42.794;23.302;2023-05-02T03:07:27;95886.97;;;7.71;78.68
70072;BME280;57434;42.794;23.302;2023-05-02T03:08:41;95994.56;;;8.36;78.99
70072;BME280;57434;42.794;23.302;2023-05-02T03:09:44;96008.81;;;8.47;78.73
70072;BME280;57434;42.794;23.302;2023-05-02T03:10:46;96015.03;;;8.42;78.93
70072;BME280;57434;42.794;23.302;2023-05-02T03:11:47;95901.25;;;7.64;79.09
70072;BME280;57434;42.794;23.302;2023-05-02T03:12:49;96029.31;;;8.53;79.17
70072;BME280;57434;42.794;23.302;2023-05-02T03:13:51;95915.78;;;7.77;78.84
70072;BME280;57434;42.794;23.302;2023-05-02T03:15:01;95890.06;;;7.64;78.99
70072;BME280;57434;42.794;23.302;2023-05-02T03:16:26;96038.13;;;8.61;78.71
70072;BME280;57434;42.794;23.302;2023-05-02T03:17:30;96049.38;;;8.42;78.56
70072;BME280;57434;42.794;23.302;2023-05-02T03:18:31;96029.50;;;8.40;78.56
70072;BME280;57434;42.794;23.302;2023-05-02T03:19:33;96052.00;;;8.46;78.66
70072;BME280;57434;42.794;23.302;2023-05-02T03:20:35;96020.84;;;8.20;78.92
70072;BME280;57434;42.794;23.302;2023-05-02T03:21:37;96044.09;;;8.35;78.63
70072;BME280;57434;42.794;23.302;2023-05-02T03:22:39;96032.16;;;8.26;78.80
70072;BME280;57434;42.794;23.302;2023-05-02T03:23:41;95954.91;;;7.86;78.64
70072;BME280;57434;42.794;23.302;2023-05-02T03:24:42;95928.06;;;7.79;78.48
70072;BME280;57434;42.794;23.302;2023-05-02T03:25:44;96062.09;;;8.53;78.36
70072;BME280;57434;42.794;23.302;2023-05-02T03:26:46;96053.25;;;8.45;78.38
70072;BME280;57434;42.794;23.302;2023-05-02T03:27:47;95932.56;;;7.59;78.17
70072;BME280;57434;42.794;23.302;2023-05-02T03:28:49;95927.31;;;7.61;78.28
70072;BME280;57434;42.794;23.302;2023-05-02T03:29:51;96068.16;;;8.51;78.50
70072;BME280;57434;42.794;23.302;2023-05-02T03:30:52;96071.59;;;8.37;78.44
70072;BME280;57434;42.794;23.302;2023-05-02T03:31:54;96066.16;;;8.33;78.82
70072;BME280;57434;42.794;23.302;2023-05-02T03:32:56;96049.56;;;8.21;79.19
70072;BME280;57434;42.794;23.302;2023-05-02T03:33:58;96015.91;;;7.97;79.46
70072;BME280;57434;42.794;23.302;2023-05-02T03:35:00;96057.63;;;8.09;79.65
70072;BME280;57434;42.794;23.302;2023-05-02T03:36:01;96007.34;;;8.00;79.70
70072;BME280;57434;42.794;23.302;2023-05-02T03:37:03;96030.00;;;8.21;79.92
70072;BME280;57434;42.794;23.302;2023-05-02T03:38:05;96027.50;;;8.13;79.99
70072;BME280;57434;42.794;23.302;2023-05-02T03:39:07;96054.81;;;8.46;79.51
70072;BME280;57434;42.794;23.302;2023-05-02T03:40:09;95937.53;;;7.64;79.37
70072;BME280;57434;42.794;23.302;2023-05-02T03:41:11;96062.09;;;8.43;79.78
70072;BME280;57434;42.794;23.302;2023-05-02T03:42:13;96077.03;;;8.40;79.72
70072;BME280;57434;42.794;23.302;2023-05-02T03:43:14;96040.22;;;8.33;79.77
70072;BME280;57434;42.794;23.302;2023-05-02T03:44:16;96057.00;;;8.33;80.00
70072;BME280;57434;42.794;23.302;2023-05-02T03:45:18;95962.97;;;8.02;79.82
70072;BME280;57434;42.794;23.302;2023-05-02T03:46:20;96027.00;;;8.42;79.96
70072;BME280;57434;42.794;23.302;2023-05-02T03:47:21;96059.41;;;8.67;79.95
70072;BME280;57434;42.794;23.302;2023-05-02T03:48:23;96049.78;;;8.68;79.60
70072;BME280;57434;42.794;23.302;2023-05-02T03:49:25;95993.34;;;8.28;79.60
70072;BME280;57434;42.794;23.302;2023-05-02T03:50:27;95938.41;;;8.06;79.74
70072;BME280;57434;42.794;23.302;2023-05-02T03:51:29;95984.16;;;8.36;79.65
70072;BME280;57434;42.794;23.302;2023-05-02T03:52:32;96079.22;;;8.97;79.57
70072;BME280;57434;42.794;23.302;2023-05-02T03:53:35;96079.69;;;8.95;79.51
70072;BME280;57434;42.794;23.302;2023-05-02T03:54:36;95938.69;;;8.18;79.32
70072;BME280;57434;42.794;23.302;2023-05-02T03:55:39;96063.97;;;9.07;79.00
70072;BME280;57434;42.794;23.302;2023-05-02T03:56:41;96058.63;;;9.18;78.60
70072;BME280;57434;42.794;23.302;2023-05-02T03:57:43;96065.63;;;9.13;78.55
70072;BME280;57434;42.794;23.302;2023-05-02T03:58:45;96065.69;;;9.04;78.64
70072;BME280;57434;42.794;23.302;2023-05-02T03:59:47;95943.13;;;8.42;78.34
70072;BME280;57434;42.794;23.302;2023-05-02T04:00:48;96057.41;;;9.10;78.39
70072;BME280;57434;42.794;23.302;2023-05-02T04:01:50;95929.94;;;8.43;78.37
70072;BME280;57434;42.794;23.302;2023-05-02T04:02:52;96046.50;;;9.21;78.45
70072;BME280;57434;42.794;23.302;2023-05-02T04:03:54;95936.91;;;8.47;78.72
70072;BME280;57434;42.794;23.302;2023-05-02T04:04:56;96076.50;;;9.30;78.41
70072;BME280;57434;42.794;23.302;2023-05-02T04:05:57;95951.91;;;8.59;78.33
70072;BME280;57434;42.794;23.302;2023-05-02T04:06:59;96080.78;;;9.40;78.49
70072;BME280;57434;42.794;23.302;2023-05-02T04:08:01;96043.38;;;9.28;78.43
70072;BME280;57434;42.794;23.302;2023-05-02T04:09:03;96065.97;;;9.48;78.37
70072;BME280;57434;42.794;23.302;2023-05-02T04:10:05;96053.06;;;9.42;78.48
70072;BME280;57434;42.794;23.302;2023-05-02T04:11:07;96086.81;;;9.47;78.65
70072;BME280;57434;42.794;23.302;2023-05-02T04:12:08;96054.81;;;9.39;78.78
70072;BME280;57434;42.794;23.302;2023-05-02T04:13:10;96063.56;;;9.32;78.70
70072;BME280;57434;42.794;23.302;2023-05-02T04:14:12;95954.88;;;8.89;78.64
70072;BME280;57434;42.794;23.302;2023-05-02T04:15:14;96058.88;;;9.38;78.89
70072;BME280;57434;42.794;23.302;2023-05-02T04:16:16;96058.59;;;9.60;78.90
70072;BME280;57434;42.794;23.302;2023-05-02T04:17:17;96047.94;;;9.40;78.93
70072;BME280;57434;42.794;23.302;2023-05-02T04:18:19;96069.16;;;9.65;78.89
70072;BME280;57434;42.794;23.302;2023-05-02T04:19:21;96065.91;;;9.58;78.87
70072;BME280;57434;42.794;23.302;2023-05-02T04:20:23;96068.66;;;9.67;78.92
70072;BME280;57434;42.794;23.302;2023-05-02T04:21:25;95970.53;;;9.04;79.13
70072;BME280;57434;42.794;23.302;2023-05-02T04:22:27;96066.63;;;9.67;79.30
70072;BME280;57434;42.794;23.302;2023-05-02T04:23:29;96037.59;;;9.56;79.32
70072;BME280;57434;42.794;23.302;2023-05-02T04:24:31;95924.00;;;8.83;79.07
70072;BME280;57434;42.794;23.302;2023-05-02T04:25:32;95953.56;;;9.08;79.38
70072;BME280;57434;42.794;23.302;2023-05-02T04:26:34;95958.78;;;9.15;79.18
70072;BME280;57434;42.794;23.302;2023-05-02T04:27:35;96083.75;;;9.93;79.32
70072;BME280;57434;42.794;23.302;2023-05-02T04:28:37;96053.34;;;9.77;79.32
70072;BME280;57434;42.794;23.302;2023-05-02T04:29:39;96108.41;;;10.04;78.83
70072;BME280;57434;42.794;23.302;2023-05-02T04:30:40;96065.66;;;9.94;78.49
70072;BME280;57434;42.794;23.302;2023-05-02T04:31:42;96102.81;;;10.04;78.73
70072;BME280;57434;42.794;23.302;2023-05-02T04:32:45;95943.22;;;9.23;78.47
70072;BME280;57434;42.794;23.302;2023-05-02T04:33:47;96069.53;;;10.21;78.70
70072;BME280;57434;42.794;23.302;2023-05-02T04:34:49;95995.16;;;9.72;78.81
70072;BME280;57434;42.794;23.302;2023-05-02T04:35:51;96048.13;;;10.08;78.25
70072;BME280;57434;42.794;23.302;2023-05-02T04:36:53;96077.84;;;10.30;78.11
70072;BME280;57434;42.794;23.302;2023-05-02T04:37:54;96073.19;;;10.27;78.26
70072;BME280;57434;42.794;23.302;2023-05-02T04:38:56;96078.03;;;10.26;78.19
70072;BME280;57434;42.794;23.302;2023-05-02T04:39:58;96054.81;;;10.26;76.96
70072;BME280;57434;42.794;23.302;2023-05-02T04:41:00;96064.13;;;10.32;76.84
70072;BME280;57434;42.794;23.302;2023-05-02T04:42:10;96086.91;;;10.48;76.64
70072;BME280;57434;42.794;23.302;2023-05-02T04:43:12;95949.38;;;9.75;76.41
70072;BME280;57434;42.794;23.302;2023-05-02T04:44:13;95958.00;;;9.86;75.97
70072;BME280;57434;42.794;23.302;2023-05-02T04:45:15;95951.63;;;9.85;75.97
70072;BME280;57434;42.794;23.302;2023-05-02T04:46:17;95950.25;;;9.81;75.81
70072;BME280;57434;42.794;23.302;2023-05-02T04:47:19;96095.81;;;10.76;75.41
70072;BME280;57434;42.794;23.302;2023-05-02T04:48:21;96031.53;;;10.49;75.49
70072;BME280;57434;42.794;23.302;2023-05-02T04:49:22;96064.94;;;10.62;75.76
70072;BME280;57434;42.794;23.302;2023-05-02T04:50:24;95983.47;;;10.12;75.90
70072;BME280;57434;42.794;23.302;2023-05-02T04:51:26;96091.47;;;10.75;75.85
70072;BME280;57434;42.794;23.302;2023-05-02T04:52:29;96072.69;;;10.81;75.60
70072;BME280;57434;42.794;23.302;2023-05-02T04:53:31;96057.22;;;10.71;74.95
70072;BME280;57434;42.794;23.302;2023-05-02T04:54:33;96093.59;;;10.80;74.90
70072;BME280;57434;42.794;23.302;2023-05-02T04:55:35;95987.91;;;10.33;75.26
70072;BME280;57434;42.794;23.302;2023-05-02T04:56:36;95954.66;;;10.11;75.16
70072;BME280;57434;42.794;23.302;2023-05-02T04:57:38;96111.25;;;10.96;75.70
70072;BME280;57434;42.794;23.302;2023-05-02T04:58:40;96066.78;;;10.79;75.82
70072;BME280;57434;42.794;23.302;2023-05-02T04:59:42;96078.03;;;10.94;75.55
70072;BME280;57434;42.794;23.302;2023-05-02T05:00:43;96083.34;;;11.07;74.95
70072;BME280;57434;42.794;23.302;2023-05-02T05:01:45;96091.09;;;11.12;74.40
70072;BME280;57434;42.794;23.302;2023-05-02T05:02:47;96091.09;;;11.12;74.56
70072;BME280;57434;42.794;23.302;2023-05-02T05:03:49;96062.81;;;11.15;74.40
70072;BME280;57434;42.794;23.302;2023-05-02T05:04:51;95982.31;;;10.63;73.75
70072;BME280;57434;42.794;23.302;2023-05-02T05:05:53;95960.91;;;10.50;73.43
70072;BME280;57434;42.794;23.302;2023-05-02T05:06:54;95958.13;;;10.50;73.08
70072;BME280;57434;42.794;23.302;2023-05-02T05:07:56;95990.53;;;10.66;72.96
70072;BME280;57434;42.794;23.302;2023-05-02T05:08:58;96082.16;;;11.28;72.44
70072;BME280;57434;42.794;23.302;2023-05-02T05:10:00;96076.13;;;11.35;72.15
70072;BME280;57434;42.794;23.302;2023-05-02T05:11:02;96063.38;;;11.19;72.58
70072;BME280;57434;42.794;23.302;2023-05-02T05:12:04;96085.31;;;11.50;72.62
70072;BME280;57434;42.794;23.302;2023-05-02T05:13:06;96083.09;;;11.40;72.16
70072;BME280;57434;42.794;23.302;2023-05-02T05:14:08;95940.13;;;10.57;71.64
70072;BME280;57434;42.794;23.302;2023-05-02T05:15:10;95982.50;;;10.89;71.67
70072;BME280;57434;42.794;23.302;2023-05-02T05:16:12;96092.06;;;11.59;71.59
70072;BME280;57434;42.794;23.302;2023-05-02T05:17:14;95969.72;;;10.73;71.53
70072;BME280;57434;42.794;23.302;2023-05-02T05:18:16;95984.63;;;10.94;71.04
70072;BME280;57434;42.794;23.302;2023-05-02T05:19:17;96070.28;;;11.53;70.15
70072;BME280;57434;42.794;23.302;2023-05-02T05:20:19;96064.31;;;11.46;69.73
70072;BME280;57434;42.794;23.302;2023-05-02T05:21:21;96047.16;;;11.44;70.28
70072;BME280;57434;42.794;23.302;2023-05-02T05:22:22;96062.97;;;11.62;70.04
70072;BME280;57434;42.794;23.302;2023-05-02T05:23:24;96084.78;;;11.67;68.99
70072;BME280;57434;42.794;23.302;2023-05-02T05:24:26;95961.38;;;10.93;67.82
70072;BME280;57434;42.794;23.302;2023-05-02T05:25:28;96076.34;;;11.67;68.51
70072;BME280;57434;42.794;23.302;2023-05-02T05:26:30;95952.88;;;10.88;68.18
70072;BME280;57434;42.794;23.302;2023-05-02T05:27:33;96100.66;;;11.70;68.62
70072;BME280;57434;42.794;23.302;2023-05-02T05:28:35;96051.97;;;11.58;68.41
70072;BME280;57434;42.794;23.302;2023-05-02T05:29:37;96089.44;;;11.90;67.95
70072;BME280;57434;42.794;23.302;2023-05-02T05:30:38;95952.09;;;11.02;68.04
70072;BME280;57434;42.794;23.302;2023-05-02T05:31:40;95952.78;;;10.97;67.47
70072;BME280;57434;42.794;23.302;2023-05-02T05:32:42;96092.31;;;11.75;67.00
70072;BME280;57434;42.794;23.302;2023-05-02T05:33:43;96094.78;;;11.88;67.57
70072;BME280;57434;42.794;23.302;2023-05-02T05:34:45;96092.03;;;11.94;67.59
70072;BME280;57434;42.794;23.302;2023-05-02T05:35:47;96097.47;;;11.97;67.79
70072;BME280;57434;42.794;23.302;2023-05-02T05:36:49;96104.84;;;11.95;66.79
70072;BME280;57434;42.794;23.302;2023-05-02T05:37:51;96081.44;;;11.83;66.78
70072;BME280;57434;42.794;23.302;2023-05-02T05:38:53;96102.72;;;11.89;66.85
70072;BME280;57434;42.794;23.302;2023-05-02T05:39:54;96086.50;;;11.99;66.78
70072;BME280;57434;42.794;23.302;2023-05-02T05:40:56;96074.97;;;11.97;66.39
70072;BME280;57434;42.794;23.302;2023-05-02T05:41:58;96110.63;;;12.06;65.89
70072;BME280;57434;42.794;23.302;2023-05-02T05:43:00;96038.22;;;11.80;65.94
70072;BME280;57434;42.794;23.302;2023-05-02T05:44:01;96108.66;;;12.12;65.89
70072;BME280;57434;42.794;23.302;2023-05-02T05:45:03;95962.59;;;11.42;66.12
70072;BME280;57434;42.794;23.302;2023-05-02T05:46:05;96106.94;;;12.35;66.24
70072;BME280;57434;42.794;23.302;2023-05-02T05:47:07;96105.09;;;12.32;64.79
70072;BME280;57434;42.794;23.302;2023-05-02T05:48:09;96088.97;;;12.12;65.32
70072;BME280;57434;42.794;23.302;2023-05-02T05:49:11;96072.59;;;12.10;64.62
70072;BME280;57434;42.794;23.302;2023-05-02T05:50:13;96100.66;;;12.25;64.79
70072;BME280;57434;42.794;23.302;2023-05-02T05:51:14;96063.59;;;12.06;64.35
70072;BME280;57434;42.794;23.302;2023-05-02T05:52:16;96101.78;;;12.33;64.30
70072;BME280;57434;42.794;23.302;2023-05-02T05:53:18;95992.53;;;11.65;63.91
70072;BME280;57434;42.794;23.302;2023-05-02T05:54:20;96044.59;;;12.01;63.86
70072;BME280;57434;42.794;23.302;2023-05-02T05:55:22;95992.09;;;11.72;64.29